Burgtor — V2OR7 — position and weather

sailwx.info

Track history (hours):
 
Tides and Currents Weather Stations Pressure Air Temp Water Temp Dewpoint Dewpoint Depression Visibility Wind Speed Wind Dir Waves Ship Positions

Burgtor

Last reported at 2017-Jan-17 01:26 UTC. Time now 2017-Jan-17 04:57 UTC.
Position N 50°21' W 002°43'.

Length 87 m; draft 3.6 m.

Type: Cargo ship. MMSI: 304665000.

Date/timePositionNaut miles runAvg speedWind from/ knotsBaromVisibWave heightAir tempDewpointWater temp
2017-Jan-17 01:26N 50°21' W 002°43'8 9.0
2017-Jan-17 00:34N 50°18' W 002°55'9 9.3
2017-Jan-16 23:33N 50°15' W 003°09'9 9.4
2017-Jan-16 22:34N 50°13' W 003°23'9 8.8
2017-Jan-16 21:33N 50°10' W 003°36'1110.8
2017-Jan-16 20:32N 50°10' W 003°53'1010.6
2017-Jan-16 19:32N 50°12' W 004°09'10 9.9
2017-Jan-16 18:33N 50°14' W 004°24'10 9.6
2017-Jan-16 17:33N 50°16' W 004°39'4 0.6
2017-Jan-16 10:06N 50°16' W 004°46'0 0.0
2017-Jan-16 09:33N 50°16' W 004°46'0 0.0
2017-Jan-16 07:18N 50°16' W 004°46'0 0.0
2017-Jan-16 06:33N 50°16' W 004°46'0 0.0
2017-Jan-16 03:33N 50°16' W 004°46'0 0.0
2017-Jan-16 02:30N 50°16' W 004°46'0 0.0
2017-Jan-16 01:30N 50°16' W 004°46'0 0.0
2017-Jan-16 00:30N 50°16' W 004°46'0 0.0
2017-Jan-15 23:06N 50°16' W 004°46'0 0.0
2017-Jan-15 22:27N 50°16' W 004°46'0 0.0
2017-Jan-15 21:33N 50°16' W 004°46'0 0.0
2017-Jan-15 19:30N 50°16' W 004°46'0 0.0
2017-Jan-15 16:18N 50°16' W 004°46'0 0.0
2017-Jan-15 08:27N 50°16' W 004°46'4 4.1
2017-Jan-15 07:33N 50°13' W 004°46'1110.4
2017-Jan-15 06:29N 50°05' W 004°58'  
Track history (hours):
 
Tides and Currents Weather Stations Pressure Air Temp Water Temp Dewpoint Dewpoint Depression Visibility Wind Speed Wind Dir Waves Ship Positions

Burgtor

Last reported at 2017-Jan-17 01:26 UTC. Time now 2017-Jan-17 04:57 UTC.
Position N 50°21' W 002°43'.

Length 87 m; draft 3.6 m.

Type: Cargo ship. MMSI: 304665000.

Date/timePositionNaut miles runAvg speedWind from/ knotsBaromVisibWave heightAir tempDewpointWater temp
2017-Jan-17 01:26N 50°21' W 002°43'8 9.0
2017-Jan-17 00:34N 50°18' W 002°55'9 9.3
2017-Jan-16 23:33N 50°15' W 003°09'9 9.4
2017-Jan-16 22:34N 50°13' W 003°23'9 8.8
2017-Jan-16 21:33N 50°10' W 003°36'1110.8
2017-Jan-16 20:32N 50°10' W 003°53'1010.6
2017-Jan-16 19:32N 50°12' W 004°09'10 9.9
2017-Jan-16 18:33N 50°14' W 004°24'10 9.6
2017-Jan-16 17:33N 50°16' W 004°39'4 0.6
2017-Jan-16 10:06N 50°16' W 004°46'0 0.0
2017-Jan-16 09:33N 50°16' W 004°46'0 0.0
2017-Jan-16 07:18N 50°16' W 004°46'0 0.0
2017-Jan-16 06:33N 50°16' W 004°46'0 0.0
2017-Jan-16 03:33N 50°16' W 004°46'0 0.0
2017-Jan-16 02:30N 50°16' W 004°46'0 0.0
2017-Jan-16 01:30N 50°16' W 004°46'0 0.0
2017-Jan-16 00:30N 50°16' W 004°46'0 0.0
2017-Jan-15 23:06N 50°16' W 004°46'0 0.0
2017-Jan-15 22:27N 50°16' W 004°46'0 0.0
2017-Jan-15 21:33N 50°16' W 004°46'0 0.0
2017-Jan-15 19:30N 50°16' W 004°46'0 0.0
2017-Jan-15 16:18N 50°16' W 004°46'0 0.0
2017-Jan-15 08:27N 50°16' W 004°46'4 4.1
2017-Jan-15 07:33N 50°13' W 004°46'1110.4
2017-Jan-15 06:29N 50°05' W 004°58'  

Dump ship's entire track history